Time;durP1;ratioP1;P1;durP2;ratioP2;P2;SDS_P1;SDS_P2;PMS_P1;PMS_P2;Temp;Humidity;BMP_temperature;BMP_pressure;BME280_temperature;BME280_humidity;BME280_pressure;Samples;Min_cycle;Max_cycle;Signal;HPM_P1;HPM_P2
2022/12/04 00:01:24;;;;;;;3.35;1.20;;;12.70;94.10;;;;;;6219697;23;20009;-79
2022/12/04 00:03:56;;;;;;;3.53;1.38;;;12.70;94.10;;;;;;6219509;23;20091;-79
2022/12/04 00:06:22;;;;;;;3.78;1.70;;;12.70;94.10;;;;;;6219622;23;20012;-79
2022/12/04 00:08:48;;;;;;;5.22;1.20;;;12.80;94.00;;;;;;6246330;23;20101;-79
2022/12/04 00:11:17;;;;;;;3.78;1.33;;;12.80;94.00;;;;;;6219750;23;20332;-78
2022/12/04 00:13:43;;;;;;;3.33;1.45;;;12.80;94.10;;;;;;6246192;23;20000;-79
2022/12/04 00:16:12;;;;;;;2.83;1.48;;;12.90;94.00;;;;;;6219578;23;20038;-79
2022/12/04 00:18:38;;;;;;;4.18;1.85;;;12.90;94.10;;;;;;6219509;23;20012;-80
2022/12/04 00:21:06;;;;;;;5.47;2.30;;;12.90;94.10;;;;;;6219719;23;20031;-79
2022/12/04 00:23:32;;;;;;;3.55;1.58;;;12.90;94.20;;;;;;6219212;23;20012;-78
2022/12/04 00:26:07;;;;;;;4.00;1.67;;;13.00;94.20;;;;;;6219352;23;20016;-78
2022/12/04 00:28:34;;;;;;;3.88;1.70;;;13.00;93.80;;;;;;6246391;23;20000;-80
2022/12/04 00:31:03;;;;;;;5.63;1.80;;;13.00;94.00;;;;;;6219750;23;20019;-79
2022/12/04 00:33:28;;;;;;;2.85;1.35;;;13.00;94.00;;;;;;6246174;23;20444;-78
2022/12/04 00:35:58;;;;;;;6.00;1.95;;;13.00;93.90;;;;;;6246290;23;20022;-79
2022/12/04 00:38:25;;;;;;;4.72;1.58;;;13.00;93.80;;;;;;6219426;23;20019;-78
2022/12/04 00:40:51;;;;;;;3.97;1.35;;;13.00;93.80;;;;;;6246561;23;20007;-79
2022/12/04 00:43:17;;;;;;;4.22;1.83;;;13.10;93.80;;;;;;6219101;23;20396;-79
2022/12/04 00:45:43;;;;;;;6.47;1.48;;;13.10;93.70;;;;;;6246494;23;20018;-79
2022/12/04 00:48:09;;;;;;;4.18;1.48;;;13.10;93.60;;;;;;6219288;23;20008;-81
2022/12/04 00:50:35;;;;;;;3.67;1.33;;;13.10;93.60;;;;;;6219295;23;20023;-79
2022/12/04 00:53:01;;;;;;;3.28;1.00;;;13.00;93.50;;;;;;6246017;23;20314;-79
2022/12/04 00:55:27;;;;;;;2.00;0.90;;;13.00;93.40;;;;;;6247518;23;20007;-80
2022/12/04 00:57:52;;;;;;;4.78;1.20;;;13.00;93.40;;;;;;6220663;23;20016;-80
2022/12/04 01:00:18;;;;;;;4.75;1.30;;;13.00;93.40;;;;;;6219252;23;20012;-79
2022/12/04 01:02:44;;;;;;;2.33;1.30;;;13.10;93.20;;;;;;6249067;23;19996;-78
2022/12/04 01:05:11;;;;;;;3.42;0.95;;;13.10;93.20;;;;;;6249081;23;20019;-79
2022/12/04 01:07:37;;;;;;;3.95;1.10;;;13.10;93.00;;;;;;6219799;23;20031;-79
2022/12/04 01:10:04;;;;;;;2.85;1.30;;;13.10;93.10;;;;;;6246021;23;20016;-78
2022/12/04 01:12:30;;;;;;;2.67;0.88;;;13.10;93.00;;;;;;6219099;23;20004;-78
2022/12/04 01:14:56;;;;;;;3.33;1.30;;;13.10;92.90;;;;;;6218711;23;20008;-71
2022/12/04 01:17:22;;;;;;;1.83;0.90;;;13.10;92.90;;;;;;6245862;23;20006;-78
2022/12/04 01:19:47;;;;;;;2.72;1.20;;;13.10;92.90;;;;;;6218930;23;20040;-78
2022/12/04 01:22:13;;;;;;;3.30;1.55;;;13.10;93.00;;;;;;6219039;23;20004;-78
2022/12/04 01:24:39;;;;;;;4.43;1.40;;;13.10;93.00;;;;;;6245613;23;20138;-78
2022/12/04 01:27:04;;;;;;;4.85;1.50;;;13.10;93.40;;;;;;6245649;23;20003;-76
2022/12/04 01:29:30;;;;;;;3.47;1.05;;;13.10;93.20;;;;;;6218915;23;20008;-78
2022/12/04 01:31:56;;;;;;;3.75;1.30;;;13.10;93.30;;;;;;6219345;23;20091;-78
2022/12/04 01:34:24;;;;;;;3.08;1.23;;;13.10;93.20;;;;;;6245321;23;20055;-77
2022/12/04 01:36:50;;;;;;;5.38;1.42;;;13.10;93.40;;;;;;6219182;23;20008;-78
2022/12/04 01:39:16;;;;;;;2.90;1.40;;;13.10;93.40;;;;;;6245581;23;20007;-77
2022/12/04 01:41:42;;;;;;;3.90;0.98;;;13.20;93.40;;;;;;6218856;23;20008;-78
2022/12/04 01:44:13;;;;;;;5.00;1.27;;;13.20;93.50;;;;;;6218710;23;20004;-78
2022/12/04 01:46:41;;;;;;;2.38;0.93;;;13.20;93.30;;;;;;6249611;23;20007;-78
2022/12/04 01:49:11;;;;;;;4.75;1.17;;;13.30;93.30;;;;;;6221496;23;20086;-78
2022/12/04 01:51:41;;;;;;;5.45;1.27;;;13.30;93.20;;;;;;6218869;23;20325;-79
2022/12/04 01:54:14;;;;;;;2.53;0.90;;;13.30;93.20;;;;;;6246048;23;20000;-78
2022/12/04 01:56:45;;;;;;;4.53;0.73;;;13.30;93.20;;;;;;6219023;23;20055;-80
2022/12/04 01:59:15;;;;;;;4.63;1.10;;;13.30;93.20;;;;;;6245348;23;20219;-79
2022/12/04 02:01:52;;;;;;;3.95;1.20;;;13.30;93.10;;;;;;6219159;23;20012;-79
2022/12/04 02:04:18;;;;;;;3.10;1.00;;;13.30;93.10;;;;;;6245625;23;20379;-77
2022/12/04 02:06:44;;;;;;;4.80;0.90;;;13.30;93.00;;;;;;6218823;23;20008;-78
2022/12/04 02:09:10;;;;;;;4.85;1.25;;;13.30;93.00;;;;;;6218712;23;20020;-79
2022/12/04 02:11:50;;;;;;;6.32;1.17;;;13.40;93.00;;;;;;6245442;23;20447;-79
2022/12/04 02:14:29;;;;;;;5.10;1.30;;;13.30;92.90;;;;;;6218966;23;20015;-79
2022/12/04 02:17:42;;;;;;;3.08;0.98;;;13.30;92.80;;;;;;6218539;23;20440;-76
2022/12/04 02:20:40;;;;;;;4.43;1.20;;;13.30;92.90;;;;;;6184913;23;20092;-79
2022/12/04 02:23:22;;;;;;;5.18;1.10;;;13.40;93.00;;;;;;6218576;23;20008;-79
2022/12/04 02:26:06;;;;;;;4.03;1.05;;;13.30;93.00;;;;;;6218497;23;20012;-79
2022/12/04 02:28:38;;;;;;;3.88;0.90;;;13.40;93.00;;;;;;6245557;23;19996;-77
2022/12/04 02:31:08;;;;;;;8.38;1.27;;;13.40;93.10;;;;;;6218613;23;20012;-77
2022/12/04 02:33:47;;;;;;;6.25;1.30;;;13.40;93.00;;;;;;6245656;23;20000;-78
2022/12/04 02:36:21;;;;;;;8.07;2.03;;;13.40;93.10;;;;;;6219758;23;20000;-78
2022/12/04 02:39:10;;;;;;;4.85;1.20;;;13.30;93.10;;;;;;6248329;23;19996;-80
2022/12/04 02:41:45;;;;;;;3.88;1.13;;;13.30;93.10;;;;;;6246970;23;20082;-77
2022/12/04 02:44:29;;;;;;;10.30;1.83;;;13.30;93.20;;;;;;6218754;23;20008;-78
2022/12/04 02:47:00;;;;;;;9.02;1.40;;;13.30;93.40;;;;;;6220453;23;20011;-77
2022/12/04 02:49:39;;;;;;;5.85;1.20;;;13.30;93.40;;;;;;6247239;23;19993;-77
2022/12/04 02:52:12;;;;;;;5.63;1.05;;;13.30;93.60;;;;;;6220807;23;20092;-78
2022/12/04 02:54:43;;;;;;;4.40;1.38;;;13.20;93.60;;;;;;6220527;23;20000;-77
2022/12/04 02:57:15;;;;;;;7.30;1.67;;;13.20;93.40;;;;;;6247398;23;20000;-78
2022/12/04 02:59:43;;;;;;;6.00;1.15;;;13.20;93.40;;;;;;6220454;23;20011;-79
2022/12/04 03:02:33;;;;;;;7.93;1.55;;;13.20;93.50;;;;;;6247283;23;20032;-78
2022/12/04 03:05:04;;;;;;;5.85;1.40;;;13.20;93.60;;;;;;6219973;23;20078;-77
2022/12/04 03:07:37;;;;;;;10.65;2.20;;;13.20;93.70;;;;;;6220418;23;20035;-78
2022/12/04 03:10:10;;;;;;;8.93;1.52;;;13.20;93.60;;;;;;6220474;23;20028;-79
2022/12/04 03:12:51;;;;;;;11.15;1.30;;;13.20;93.50;;;;;;6248663;23;20001;-77
2022/12/04 03:15:43;;;;;;;6.95;1.25;;;13.20;93.50;;;;;;6220688;23;20087;-77
2022/12/04 03:18:22;;;;;;;5.97;1.10;;;13.20;93.30;;;;;;6220389;23;20011;-77
2022/12/04 03:20:53;;;;;;;9.10;1.63;;;13.20;93.40;;;;;;6247132;23;20006;-79
2022/12/04 03:23:36;;;;;;;7.40;1.40;;;13.20;93.40;;;;;;6219695;23;20132;-77
2022/12/04 03:26:29;;;;;;;6.70;1.13;;;13.20;93.40;;;;;;6220261;23;20016;-78
2022/12/04 03:28:57;;;;;;;8.50;1.75;;;13.30;93.20;;;;;;6220240;23;20343;-78
2022/12/04 03:31:56;;;;;;;8.23;1.50;;;13.20;93.20;;;;;;6220133;23;20087;-77
2022/12/04 03:34:31;;;;;;;3.33;1.00;;;13.20;93.10;;;;;;6247018;23;20005;-78
2022/12/04 03:37:09;;;;;;;3.95;1.58;;;13.20;93.10;;;;;;6219996;23;20015;-78
2022/12/04 03:39:59;;;;;;;4.30;1.15;;;13.20;93.20;;;;;;6246623;23;20004;-78
2022/12/04 03:42:32;;;;;;;6.38;1.30;;;13.30;93.20;;;;;;6246987;23;20321;-78
2022/12/04 03:45:19;;;;;;;5.65;0.82;;;13.30;93.10;;;;;;6246656;23;20019;-78
2022/12/04 03:48:08;;;;;;;10.50;1.10;;;13.30;92.90;;;;;;6246944;23;20073;-77
2022/12/04 03:50:38;;;;;;;5.60;1.30;;;13.20;93.00;;;;;;6246970;23;20075;-78
2022/12/04 03:53:17;;;;;;;4.60;1.15;;;13.20;93.10;;;;;;6246542;23;20838;-77
2022/12/04 03:55:51;;;;;;;4.63;1.30;;;13.20;93.20;;;;;;6219972;23;20004;-78
2022/12/04 03:58:21;;;;;;;6.97;1.10;;;13.20;93.10;;;;;;6246750;23;20035;-77
2022/12/04 04:00:51;;;;;;;6.90;1.20;;;13.20;93.30;;;;;;6219709;23;20008;-78
2022/12/04 04:03:22;;;;;;;5.25;1.42;;;13.10;93.30;;;;;;6246604;23;20007;-78
2022/12/04 04:05:53;;;;;;;6.55;0.90;;;13.20;93.30;;;;;;6249196;23;20012;-77
2022/12/04 04:08:26;;;;;;;7.63;1.27;;;13.10;93.40;;;;;;6246643;23;20413;-77
2022/12/04 04:10:57;;;;;;;7.55;0.70;;;13.20;93.40;;;;;;6246950;23;20413;-78
2022/12/04 04:24:53;;;;;;;6.38;1.10;;;13.30;93.20;;;;;;6246486;23;20031;-77
2022/12/04 04:27:19;;;;;;;7.13;1.10;;;13.30;93.20;;;;;;6246730;23;20066;-79
2022/12/04 04:29:45;;;;;;;2.97;0.98;;;13.30;93.10;;;;;;6246900;23;20425;-77
2022/12/04 04:32:24;;;;;;;9.07;1.25;;;13.30;93.00;;;;;;6246948;23;19996;-77
2022/12/04 04:35:16;;;;;;;10.88;1.13;;;13.40;93.10;;;;;;6246799;23;20004;-77
2022/12/04 04:38:10;;;;;;;7.00;1.67;;;13.40;92.90;;;;;;6246492;23;20007;-78
2022/12/04 04:40:48;;;;;;;6.28;1.20;;;13.40;92.90;;;;;;6219336;23;20436;-78
2022/12/04 04:43:43;;;;;;;9.25;1.50;;;13.40;92.90;;;;;;6246167;23;20000;-77
2022/12/04 04:46:38;;;;;;;9.50;1.50;;;13.40;92.80;;;;;;6246414;23;20044;-78
2022/12/04 04:49:07;;;;;;;3.88;1.40;;;13.40;92.90;;;;;;6246353;23;19996;-77
2022/12/04 04:51:35;;;;;;;14.85;2.10;;;13.40;93.00;;;;;;6219712;23;20044;-77
2022/12/04 04:54:06;;;;;;;4.63;1.20;;;13.40;92.90;;;;;;6219551;23;20009;-78
2022/12/04 04:56:38;;;;;;;7.97;1.50;;;13.40;92.90;;;;;;6218885;23;20010;-79
2022/12/04 04:59:03;;;;;;;5.13;1.30;;;13.40;92.90;;;;;;6219241;23;20340;-78
2022/12/04 05:01:29;;;;;;;6.70;1.73;;;13.50;92.90;;;;;;6219017;23;20018;-77
2022/12/04 05:03:55;;;;;;;11.88;2.55;;;13.50;92.90;;;;;;6218948;23;20008;-78
2022/12/04 05:06:20;;;;;;;7.13;1.50;;;13.50;92.90;;;;;;6218915;23;20091;-77
2022/12/04 05:08:48;;;;;;;9.98;1.80;;;13.50;92.80;;;;;;6245572;23;20016;-77
2022/12/04 05:11:15;;;;;;;7.43;1.58;;;13.50;92.90;;;;;;6218528;23;20447;-78
2022/12/04 05:13:41;;;;;;;16.88;1.90;;;13.50;92.90;;;;;;6218906;23;20429;-77
2022/12/04 05:16:11;;;;;;;13.77;1.90;;;13.50;93.00;;;;;;6245860;23;20032;-78
2022/12/04 05:18:37;;;;;;;6.30;1.60;;;13.50;93.00;;;;;;6221619;23;20012;-77
2022/12/04 05:21:17;;;;;;;8.13;1.60;;;13.60;93.40;;;;;;6221595;23;20397;-78
2022/12/04 05:23:43;;;;;;;7.30;1.55;;;13.60;93.10;;;;;;6221934;23;20000;-77
2022/12/04 05:26:09;;;;;;;6.45;1.50;;;13.60;93.10;;;;;;6219906;23;20019;-76
2022/12/04 05:28:34;;;;;;;9.25;1.67;;;13.60;93.30;;;;;;6219361;23;20030;-78
2022/12/04 05:31:02;;;;;;;8.40;1.35;;;13.60;93.30;;;;;;6246883;23;20071;-78
2022/12/04 05:33:28;;;;;;;9.38;1.45;;;13.60;93.30;;;;;;6246536;23;20054;-78
2022/12/04 05:35:59;;;;;;;9.48;1.85;;;13.60;93.20;;;;;;6245946;23;20000;-78
2022/12/04 05:38:24;;;;;;;9.32;1.90;;;13.50;93.40;;;;;;6218943;23;20010;-77
2022/12/04 05:40:50;;;;;;;6.70;1.45;;;13.50;93.40;;;;;;6245807;23;20074;-78
2022/12/04 05:43:16;;;;;;;11.85;2.00;;;13.50;93.40;;;;;;6218689;23;20065;-78
2022/12/04 05:45:41;;;;;;;10.43;1.92;;;13.50;93.50;;;;;;6218754;23;20444;-79
2022/12/04 05:48:07;;;;;;;5.80;1.30;;;13.50;93.60;;;;;;6219470;23;20047;-78
2022/12/04 05:50:33;;;;;;;8.63;1.88;;;13.50;93.60;;;;;;6219277;23;20012;-78
2022/12/04 05:52:58;;;;;;;5.25;1.52;;;13.50;93.50;;;;;;6245646;23;20000;-78
2022/12/04 05:55:24;;;;;;;8.43;1.67;;;13.40;93.40;;;;;;6245546;23;20035;-78
2022/12/04 05:57:50;;;;;;;7.28;1.55;;;13.40;93.60;;;;;;6218730;23;20111;-77
2022/12/04 06:00:16;;;;;;;8.48;1.80;;;13.40;93.70;;;;;;6218652;23;20012;-78
2022/12/04 06:02:42;;;;;;;8.35;1.50;;;13.40;93.70;;;;;;6218767;23;20459;-79
2022/12/04 06:05:08;;;;;;;9.35;1.65;;;13.30;93.70;;;;;;6245476;23;20016;-78
2022/12/04 06:07:34;;;;;;;9.82;1.98;;;13.40;93.70;;;;;;6218656;23;20008;-77
2022/12/04 06:10:00;;;;;;;10.85;2.00;;;13.40;93.70;;;;;;6245320;22;20318;-78
2022/12/04 06:12:26;;;;;;;11.57;2.00;;;13.40;93.80;;;;;;6218535;23;20010;-77
2022/12/04 06:14:51;;;;;;;7.50;1.80;;;13.30;93.90;;;;;;6245348;23;20004;-79
2022/12/04 06:17:17;;;;;;;9.55;1.85;;;13.30;93.90;;;;;;6218567;23;20433;-79
2022/12/04 06:19:42;;;;;;;11.82;2.15;;;13.30;93.90;;;;;;6218344;23;20026;-79
2022/12/04 06:22:08;;;;;;;7.78;1.98;;;13.30;93.90;;;;;;6245115;23;20000;-78
2022/12/04 06:24:34;;;;;;;8.65;1.67;;;13.30;93.90;;;;;;6218654;23;20011;-78
2022/12/04 06:27:00;;;;;;;10.90;2.08;;;13.30;93.90;;;;;;6245419;23;20080;-78
2022/12/04 06:29:25;;;;;;;10.63;2.60;;;13.30;93.90;;;;;;6218234;23;20015;-77
2022/12/04 06:31:51;;;;;;;14.88;2.25;;;13.20;94.00;;;;;;6218519;23;20095;-78
2022/12/04 06:34:17;;;;;;;9.85;1.95;;;13.20;94.00;;;;;;6245358;23;19996;-78
2022/12/04 06:36:42;;;;;;;6.90;2.20;;;13.20;94.10;;;;;;6245698;23;20001;-79
2022/12/04 06:39:08;;;;;;;18.98;2.95;;;13.20;94.10;;;;;;6245617;23;20138;-78
2022/12/04 06:41:35;;;;;;;12.65;2.05;;;13.20;94.20;;;;;;6218502;23;20004;-80
2022/12/04 06:44:01;;;;;;;10.38;2.10;;;13.20;94.20;;;;;;6245655;23;20011;-78
2022/12/04 06:46:31;;;;;;;10.45;2.15;;;13.10;94.20;;;;;;6218213;23;20016;-78
2022/12/04 06:48:58;;;;;;;9.90;2.22;;;13.20;94.40;;;;;;6245667;23;19996;-78
2022/12/04 06:51:26;;;;;;;12.35;2.75;;;13.20;94.30;;;;;;6219257;23;20019;-77
2022/12/04 06:53:53;;;;;;;8.52;2.22;;;13.20;94.30;;;;;;6246205;23;20000;-79
2022/12/04 06:56:24;;;;;;;10.50;3.10;;;13.30;94.30;;;;;;6246034;23;20004;-77
2022/12/04 06:58:52;;;;;;;12.27;2.53;;;13.30;94.30;;;;;;6218720;23;20042;-78
2022/12/04 07:01:21;;;;;;;8.85;2.00;;;13.30;94.10;;;;;;6218368;23;20077;-78
2022/12/04 07:03:47;;;;;;;11.68;2.03;;;13.40;94.00;;;;;;6245665;23;20004;-79
2022/12/04 07:06:20;;;;;;;14.68;2.80;;;13.40;94.00;;;;;;6218323;23;20023;-79
2022/12/04 07:08:50;;;;;;;15.57;3.72;;;13.50;93.80;;;;;;6244915;23;20016;-78
2022/12/04 07:11:16;;;;;;;12.52;3.75;;;13.50;93.80;;;;;;6218047;23;20015;-79
2022/12/04 07:13:42;;;;;;;10.00;2.60;;;13.50;93.90;;;;;;6218156;23;20000;-78
2022/12/04 07:16:12;;;;;;;23.23;7.78;;;13.60;93.80;;;;;;6218528;23;20035;-78
2022/12/04 07:18:37;;;;;;;8.20;2.60;;;13.60;93.80;;;;;;6218348;23;20326;-78
2022/12/04 07:21:08;;;;;;;15.35;5.85;;;13.60;93.70;;;;;;6219705;23;20019;-78
2022/12/04 07:23:34;;;;;;;13.18;3.30;;;13.70;93.60;;;;;;6218193;23;20004;-78
2022/12/04 07:26:05;;;;;;;16.77;4.20;;;13.80;93.70;;;;;;6217953;23;20023;-79
2022/12/04 07:28:31;;;;;;;13.85;5.55;;;13.90;93.80;;;;;;6218241;23;20000;-78
2022/12/04 07:30:56;;;;;;;15.65;6.30;;;13.90;93.60;;;;;;6245008;23;20007;-78
2022/12/04 07:33:22;;;;;;;15.07;3.78;;;14.00;93.40;;;;;;6218896;23;20014;-78
2022/12/04 07:35:58;;;;;;;13.82;4.63;;;14.00;93.40;;;;;;6246384;23;20000;-79
2022/12/04 07:38:24;;;;;;;10.32;2.58;;;14.10;93.40;;;;;;6220145;23;20092;-79
2022/12/04 07:40:49;;;;;;;13.70;2.20;;;14.20;93.20;;;;;;6220132;23;20000;-78
2022/12/04 07:43:15;;;;;;;9.68;2.17;;;14.20;93.10;;;;;;6219941;23;20412;-78
2022/12/04 07:45:41;;;;;;;11.88;2.42;;;14.20;93.00;;;;;;6219586;23;20020;-80
2022/12/04 07:48:06;;;;;;;10.73;2.15;;;14.20;93.00;;;;;;6220339;23;20004;-78
2022/12/04 07:50:32;;;;;;;11.98;2.60;;;14.20;92.90;;;;;;6246559;23;20004;-79
2022/12/04 07:52:58;;;;;;;9.65;2.20;;;14.30;92.80;;;;;;6244931;23;20006;-79
2022/12/04 07:55:23;;;;;;;10.60;2.47;;;14.30;92.70;;;;;;6219502;23;20019;-78
2022/12/04 07:57:49;;;;;;;8.15;2.00;;;14.30;92.70;;;;;;6219831;23;20004;-78
2022/12/04 08:00:15;;;;;;;7.65;1.83;;;14.30;92.60;;;;;;6219820;23;20326;-78
2022/12/04 08:02:41;;;;;;;10.55;2.80;;;14.30;92.50;;;;;;6246296;23;20000;-80
2022/12/04 08:05:07;;;;;;;17.13;2.15;;;14.40;92.60;;;;;;6219397;23;20016;-78
2022/12/04 08:07:32;;;;;;;9.38;2.30;;;14.40;92.50;;;;;;6218707;23;20008;-80
2022/12/04 08:09:58;;;;;;;17.52;1.90;;;14.50;92.40;;;;;;6219263;23;20102;-80
2022/12/04 08:12:24;;;;;;;7.70;1.75;;;14.70;92.30;;;;;;6219137;23;20393;-78
2022/12/04 08:14:50;;;;;;;11.35;3.05;;;14.70;92.20;;;;;;6246120;23;20008;-78
2022/12/04 08:17:15;;;;;;;11.00;2.17;;;14.80;92.10;;;;;;6218769;23;20004;-78
2022/12/04 08:19:41;;;;;;;11.32;2.22;;;14.90;92.10;;;;;;6219543;23;20014;-80
2022/12/04 08:22:07;;;;;;;12.30;1.80;;;15.00;92.00;;;;;;6219269;23;20012;-80
2022/12/04 08:24:33;;;;;;;12.25;2.50;;;15.10;91.80;;;;;;6246044;23;20313;-79
2022/12/04 08:26:59;;;;;;;12.95;2.50;;;15.20;91.80;;;;;;6246364;23;20000;-78
2022/12/04 08:29:24;;;;;;;11.50;2.45;;;15.30;91.70;;;;;;6219330;23;20039;-79
2022/12/04 08:31:50;;;;;;;12.60;2.20;;;15.40;91.70;;;;;;6246086;23;20000;-79
2022/12/04 08:34:17;;;;;;;12.82;3.10;;;15.40;91.60;;;;;;6246069;23;19997;-77
2022/12/04 08:36:43;;;;;;;11.85;3.03;;;15.40;91.30;;;;;;6246000;23;20079;-78
2022/12/04 08:39:11;;;;;;;12.80;1.98;;;15.40;91.50;;;;;;6218943;23;20035;-80
2022/12/04 08:41:37;;;;;;;9.45;2.45;;;15.50;91.50;;;;;;6218874;23;20008;-79
2022/12/04 08:44:03;;;;;;;11.20;2.58;;;15.50;91.40;;;;;;6219067;23;20062;-78
2022/12/04 08:46:29;;;;;;;14.55;2.20;;;15.60;91.30;;;;;;6244964;23;20008;-76
2022/12/04 08:48:55;;;;;;;14.55;2.28;;;15.60;91.40;;;;;;6219205;23;20008;-80
2022/12/04 08:51:24;;;;;;;15.68;2.75;;;15.60;91.40;;;;;;6221187;23;20460;-83
2022/12/04 08:53:59;;;;;;;15.73;2.60;;;15.70;91.50;;;;;;6221186;23;20015;-80
2022/12/04 08:56:27;;;;;;;11.10;2.63;;;15.70;91.40;;;;;;6219885;23;20015;-75
2022/12/04 08:58:55;;;;;;;13.95;2.75;;;15.80;91.30;;;;;;6218822;23;20383;-79
2022/12/04 09:01:21;;;;;;;12.50;2.80;;;15.90;91.20;;;;;;6246657;23;20004;-80
2022/12/04 09:03:47;;;;;;;19.75;3.67;;;15.90;91.10;;;;;;6220058;23;20007;-78
2022/12/04 09:06:14;;;;;;;16.80;2.88;;;16.00;91.20;;;;;;6220003;23;20512;-79
2022/12/04 09:08:41;;;;;;;12.90;2.80;;;16.00;91.10;;;;;;6219443;23;20016;-78
2022/12/04 09:11:10;;;;;;;12.77;2.20;;;16.10;91.00;;;;;;6220023;23;20432;-88
2022/12/04 09:13:36;;;;;;;13.63;2.42;;;16.20;90.80;;;;;;6248345;23;20004;-86
2022/12/04 09:16:08;;;;;;;14.25;2.28;;;16.20;90.60;;;;;;6246911;23;20007;-82
2022/12/04 09:18:35;;;;;;;16.88;2.78;;;16.30;90.40;;;;;;6246010;23;20000;-77
2022/12/04 09:21:03;;;;;;;12.98;2.50;;;16.30;90.40;;;;;;6245483;23;20005;-79
2022/12/04 09:23:30;;;;;;;10.95;2.28;;;16.30;90.40;;;;;;6245306;23;20071;-78
2022/12/04 09:25:55;;;;;;;11.38;2.10;;;16.30;90.30;;;;;;6218059;23;20435;-73
2022/12/04 09:28:21;;;;;;;15.00;2.65;;;16.40;90.20;;;;;;6245333;23;19997;-78
2022/12/04 09:31:03;;;;;;;11.13;2.10;;;16.40;90.20;;;;;;6245045;23;20007;-77
2022/12/04 09:33:29;;;;;;;13.57;2.40;;;16.40;90.20;;;;;;6245859;23;20071;-76
2022/12/04 09:35:59;;;;;;;14.93;2.53;;;16.50;90.00;;;;;;6245863;23;20375;-76
2022/12/04 09:38:26;;;;;;;13.18;2.83;;;16.50;89.60;;;;;;6245298;23;20409;-77
2022/12/04 09:41:21;;;;;;;13.50;3.25;;;16.60;89.60;;;;;;6218506;23;20093;-77
2022/12/04 09:43:49;;;;;;;13.27;2.60;;;16.50;89.30;;;;;;6218658;23;20031;-75
2022/12/04 09:46:28;;;;;;;12.60;2.67;;;16.60;88.90;;;;;;6218634;23;20051;-77
2022/12/04 09:48:57;;;;;;;10.93;2.42;;;16.60;89.20;;;;;;6245348;23;20000;-77
2022/12/04 09:51:25;;;;;;;13.18;3.00;;;16.60;89.00;;;;;;6245464;23;20000;-77
2022/12/04 09:53:56;;;;;;;10.57;2.58;;;16.70;88.80;;;;;;6218548;23;20008;-76
2022/12/04 09:56:26;;;;;;;15.43;2.47;;;16.70;89.10;;;;;;6218043;23;20004;-76
2022/12/04 09:59:13;;;;;;;11.68;2.75;;;16.80;88.00;;;;;;6245335;23;20067;-75
2022/12/04 10:01:47;;;;;;;10.45;2.35;;;16.80;88.50;;;;;;6244597;23;20008;-75
2022/12/04 10:04:14;;;;;;;14.60;2.63;;;16.80;88.30;;;;;;6218480;23;20004;-77
2022/12/04 10:06:43;;;;;;;16.50;2.88;;;16.90;87.10;;;;;;6218973;23;20020;-77
2022/12/04 10:09:15;;;;;;;13.52;3.00;;;16.90;86.80;;;;;;6252706;23;20043;-77
2022/12/04 10:11:51;;;;;;;10.98;2.95;;;16.80;86.70;;;;;;6251168;23;20000;-77
2022/12/04 10:14:36;;;;;;;13.32;2.95;;;16.80;86.60;;;;;;6218767;23;20443;-77
2022/12/04 10:17:49;;;;;;;11.57;2.65;;;16.80;87.60;;;;;;6245057;23;20026;-76
2022/12/04 10:20:24;;;;;;;13.88;3.20;;;16.80;87.50;;;;;;6213216;23;20011;-76
2022/12/04 10:23:30;;;;;;;10.43;2.53;;;16.80;86.30;;;;;;6218600;23;20015;-77
2022/12/04 10:25:57;;;;;;;12.32;2.75;;;17.00;87.00;;;;;;6218244;23;20016;-76
2022/12/04 10:28:31;;;;;;;9.15;2.33;;;17.20;86.00;;;;;;6218194;23;20436;-77
2022/12/04 10:31:00;;;;;;;12.55;2.15;;;17.40;85.60;;;;;;6245122;23;20004;-76
2022/12/04 10:33:52;;;;;;;11.80;3.28;;;17.60;84.50;;;;;;6218206;23;20096;-78
2022/12/04 10:36:22;;;;;;;12.07;2.42;;;17.70;84.40;;;;;;6245220;23;20018;-77
2022/12/04 10:39:17;;;;;;;10.70;2.25;;;17.80;83.40;;;;;;6244785;23;20000;-77
2022/12/04 10:41:56;;;;;;;13.57;2.20;;;17.80;83.40;;;;;;6244696;23;20433;-77
2022/12/04 10:44:22;;;;;;;13.20;2.85;;;17.90;83.30;;;;;;6217980;23;20000;-76
2022/12/04 10:46:58;;;;;;;11.73;2.25;;;17.80;83.00;;;;;;6244898;23;20391;-77
2022/12/04 10:49:27;;;;;;;13.65;3.15;;;17.80;83.10;;;;;;6217822;23;20058;-78
2022/12/04 10:51:53;;;;;;;11.80;2.35;;;17.80;82.80;;;;;;6245030;23;20335;-76
2022/12/04 10:54:24;;;;;;;9.70;2.70;;;17.70;82.10;;;;;;6217757;23;20433;-76
2022/12/04 10:56:55;;;;;;;9.70;3.08;;;17.70;81.80;;;;;;6244435;23;20012;-77
2022/12/04 10:59:21;;;;;;;7.88;1.92;;;17.70;82.20;;;;;;6244617;23;20055;-76
2022/12/04 11:01:49;;;;;;;8.10;2.38;;;17.60;82.10;;;;;;6217918;23;20009;-77
2022/12/04 11:04:23;;;;;;;9.50;1.92;;;17.60;82.10;;;;;;6218066;23;20015;-76
2022/12/04 11:06:50;;;;;;;11.52;2.58;;;17.50;82.00;;;;;;6217838;23;20020;-76
2022/12/04 11:09:25;;;;;;;7.63;2.17;;;17.50;82.30;;;;;;6214298;23;20055;-77
2022/12/04 11:11:51;;;;;;;13.57;2.45;;;17.40;82.30;;;;;;6240161;23;20009;-77
2022/12/04 11:14:20;;;;;;;12.55;3.13;;;17.30;82.40;;;;;;6215224;23;20009;-76
2022/12/04 11:16:58;;;;;;;13.13;2.10;;;17.20;82.80;;;;;;6215009;23;20095;-76
2022/12/04 11:19:26;;;;;;;15.52;3.05;;;17.20;83.00;;;;;;6216791;23;20015;-76
2022/12/04 11:21:54;;;;;;;11.05;2.47;;;17.10;83.20;;;;;;6216340;23;20001;-78
2022/12/04 11:24:31;;;;;;;14.15;3.65;;;17.10;83.40;;;;;;6215116;23;20433;-76
2022/12/04 11:26:57;;;;;;;11.57;2.75;;;17.10;83.90;;;;;;6215977;23;20012;-76
2022/12/04 11:29:37;;;;;;;11.32;2.78;;;17.10;83.90;;;;;;6216446;23;20036;-77
2022/12/04 11:32:05;;;;;;;11.80;2.58;;;17.00;83.90;;;;;;6214412;23;20437;-75
2022/12/04 11:34:36;;;;;;;14.20;2.65;;;16.90;84.40;;;;;;6214709;23;20456;-78
2022/12/04 11:37:02;;;;;;;14.60;2.95;;;16.80;84.50;;;;;;6216611;23;20004;-78
2022/12/04 11:39:40;;;;;;;11.32;3.00;;;16.80;85.20;;;;;;6214623;23;20005;-76
2022/12/04 11:42:38;;;;;;;13.25;2.92;;;16.70;85.40;;;;;;6214674;23;20009;-76
2022/12/04 11:45:24;;;;;;;12.95;3.10;;;16.70;86.00;;;;;;6165956;23;20440;-78
2022/12/04 11:47:55;;;;;;;12.68;3.03;;;16.60;86.50;;;;;;6214216;23;20016;-79
2022/12/04 11:50:57;;;;;;;15.90;3.28;;;16.60;86.60;;;;;;6216289;23;20425;-73
2022/12/04 11:53:42;;;;;;;13.60;3.25;;;16.50;87.70;;;;;;6207477;23;20059;-74
2022/12/04 11:56:32;;;;;;;12.80;3.20;;;16.40;88.00;;;;;;6214766;23;20019;-74
2022/12/04 11:59:24;;;;;;;9.93;2.65;;;16.50;88.20;;;;;;6216845;23;20004;-72
2022/12/04 12:01:52;;;;;;;12.68;3.30;;;16.50;88.50;;;;;;6173296;23;20008;-76
2022/12/04 12:04:44;;;;;;;10.57;2.90;;;16.50;88.70;;;;;;6216092;23;20421;-78
2022/12/04 12:07:25;;;;;;;12.75;3.60;;;16.40;88.80;;;;;;6214445;23;20013;-74
2022/12/04 12:10:27;;;;;;;31.83;17.15;;;16.60;89.00;;;;;;6214574;23;20095;-72
2022/12/04 12:13:20;;;;;;;30.40;14.55;;;16.60;89.00;;;;;;6216289;23;20011;-75
2022/12/04 12:16:18;;;;;;;16.90;7.97;;;16.70;89.00;;;;;;6216397;23;20033;-74
2022/12/04 12:18:59;;;;;;;13.57;4.13;;;16.80;88.90;;;;;;6239287;23;20433;-73
2022/12/04 12:21:36;;;;;;;14.27;4.45;;;16.90;88.90;;;;;;6214806;23;20012;-75
2022/12/04 12:24:29;;;;;;;13.15;3.33;;;16.80;88.70;;;;;;6239505;23;20088;-78
2022/12/04 12:27:34;;;;;;;13.38;3.78;;;16.80;88.90;;;;;;6214662;23;20519;-79
2022/12/04 12:30:19;;;;;;;14.63;4.63;;;16.70;88.90;;;;;;6216916;22;20001;-76
2022/12/04 12:32:59;;;;;;;14.13;4.00;;;16.70;88.90;;;;;;6216182;23;20004;-75
2022/12/04 12:35:32;;;;;;;14.05;4.25;;;16.60;89.30;;;;;;6215806;23;20496;-77
2022/12/04 12:38:05;;;;;;;13.68;4.45;;;16.50;89.50;;;;;;6214352;23;20036;-77
2022/12/04 12:40:46;;;;;;;13.40;4.95;;;16.50;90.00;;;;;;6215900;23;20484;-76
2022/12/04 12:43:19;;;;;;;10.07;4.00;;;16.50;90.00;;;;;;6214309;23;20008;-76
2022/12/04 12:46:11;;;;;;;15.07;4.63;;;16.50;90.10;;;;;;6215562;23;20015;-76
2022/12/04 12:49:09;;;;;;;11.07;3.72;;;16.50;90.00;;;;;;6174283;23;20009;-75
2022/12/04 12:51:48;;;;;;;8.85;3.08;;;16.50;90.10;;;;;;6214022;23;20009;-75
2022/12/04 12:54:37;;;;;;;10.38;3.03;;;16.40;89.70;;;;;;6239190;23;20070;-78
2022/12/04 12:57:22;;;;;;;13.70;3.47;;;16.40;89.80;;;;;;6215697;23;20000;-79
2022/12/04 13:00:15;;;;;;;12.18;3.20;;;16.40;89.50;;;;;;6213749;23;20422;-81
2022/12/04 13:02:53;;;;;;;10.93;3.38;;;16.40;89.10;;;;;;6215924;23;20055;-80
2022/12/04 13:05:25;;;;;;;11.18;4.15;;;16.50;88.80;;;;;;6214310;23;20023;-80
2022/12/04 13:07:54;;;;;;;16.73;4.40;;;16.60;88.10;;;;;;6215899;23;20003;-82
2022/12/04 13:10:27;;;;;;;15.20;3.60;;;16.70;88.30;;;;;;6219108;23;20051;-80
2022/12/04 13:13:00;;;;;;;11.40;3.60;;;16.80;87.20;;;;;;6245897;23;20005;-80
2022/12/04 13:15:49;;;;;;;12.93;3.28;;;16.90;87.20;;;;;;6218677;23;20089;-76
2022/12/04 13:18:29;;;;;;;10.43;2.38;;;17.00;87.00;;;;;;6245483;23;20003;-83